KBRD/BRD METAR and TAF weather

Enter ICAO airport designator
Station Type Date Time Source
KBRD METAR 2018/12/12 15:53 UTC NOAA

KBRD 121553Z AUTO VRB03KT 1 3/4SM BR OVC006 M04/M06 A2975 RMK AO2 SLP092 T10391061


Station Type Date Time Source
KBRD Decoded METAR 2018/12/12 15:53 UTC NOAA

BRAINERD-CROW WING CO AIRPORT , MN, United States (KBRD) 46-24N 94-08W 372M
Dec 12, 2018 - 10:53 AM EST / 2018.12.12 1553 UTC
Wind: Variable at 3 MPH (3 KT):0
Visibility: 1 3/4 mile(s):0
Sky conditions: overcast
Weather: mist
Temperature: 25.0 F (-3.9 C)
Dew Point: 21.0 F (-6.1 C)
Relative Humidity: 84%
Pressure (altimeter): 29.75 in. Hg (1007 hPa)
ob: KBRD 121553Z AUTO VRB03KT 1 3/4SM BR OVC006 M04/M06 A2975 RMK AO2 SLP092 T10391061
cycle: 16

Station Type Date Time Source
KBRD TAF 2018/12/12 15:46 UTC NOAA

TAF
AMD KBRD 121444Z 1215/1312 06005KT 1SM BR OVC005
FM121800 VRB03KT P6SM BKN011
FM121900 VRB03KT P6SM BKN035
FM130600 18005KT P6SM VCSH BKN025


Example: see airport list